sensor_id;sensor_type;location;lat;lon;timestamp;P1;durP1;ratioP1;P2;durP2;ratioP2
72404;SDS011;60395;52.020;113.548;2024-01-16T00:00:46;106.50;;;44.78;;
72404;SDS011;60395;52.020;113.548;2024-01-16T00:03:49;72.60;;;33.90;;
72404;SDS011;60395;52.020;113.548;2024-01-16T00:09:56;24.43;;;15.70;;
72404;SDS011;60395;52.020;113.548;2024-01-16T00:13:00;120.50;;;39.83;;
72404;SDS011;60395;52.020;113.548;2024-01-16T00:16:03;35.75;;;20.38;;
72404;SDS011;60395;52.020;113.548;2024-01-16T00:19:07;56.00;;;25.20;;
72404;SDS011;60395;52.020;113.548;2024-01-16T00:25:14;25.20;;;18.40;;
72404;SDS011;60395;52.020;113.548;2024-01-16T00:28:18;18.27;;;11.77;;
72404;SDS011;60395;52.020;113.548;2024-01-16T00:31:22;65.60;;;29.90;;
72404;SDS011;60395;52.020;113.548;2024-01-16T00:34:26;60.83;;;33.83;;
72404;SDS011;60395;52.020;113.548;2024-01-16T00:37:30;104.10;;;37.37;;
72404;SDS011;60395;52.020;113.548;2024-01-16T00:40:34;94.37;;;42.77;;
72404;SDS011;60395;52.020;113.548;2024-01-16T00:43:38;69.30;;;34.43;;
72404;SDS011;60395;52.020;113.548;2024-01-16T00:46:41;44.58;;;28.58;;
72404;SDS011;60395;52.020;113.548;2024-01-16T00:49:44;47.35;;;28.33;;
72404;SDS011;60395;52.020;113.548;2024-01-16T00:52:48;81.85;;;36.80;;
72404;SDS011;60395;52.020;113.548;2024-01-16T00:55:51;134.88;;;50.05;;
72404;SDS011;60395;52.020;113.548;2024-01-16T00:58:56;56.47;;;29.20;;
72404;SDS011;60395;52.020;113.548;2024-01-16T01:02:00;65.73;;;30.47;;
72404;SDS011;60395;52.020;113.548;2024-01-16T01:05:04;69.38;;;34.40;;
72404;SDS011;60395;52.020;113.548;2024-01-16T01:08:07;78.63;;;34.43;;
72404;SDS011;60395;52.020;113.548;2024-01-16T01:11:11;61.50;;;28.73;;
72404;SDS011;60395;52.020;113.548;2024-01-16T01:14:15;45.97;;;17.27;;
72404;SDS011;60395;52.020;113.548;2024-01-16T01:17:19;93.88;;;31.65;;
72404;SDS011;60395;52.020;113.548;2024-01-16T01:20:22;63.08;;;29.65;;
72404;SDS011;60395;52.020;113.548;2024-01-16T01:23:26;56.27;;;24.23;;
72404;SDS011;60395;52.020;113.548;2024-01-16T01:29:35;110.37;;;38.10;;
72404;SDS011;60395;52.020;113.548;2024-01-16T01:32:38;121.33;;;42.83;;
72404;SDS011;60395;52.020;113.548;2024-01-16T01:35:44;30.70;;;17.03;;
72404;SDS011;60395;52.020;113.548;2024-01-16T01:38:47;61.10;;;23.75;;
72404;SDS011;60395;52.020;113.548;2024-01-16T01:41:50;55.65;;;25.55;;
72404;SDS011;60395;52.020;113.548;2024-01-16T01:44:54;88.22;;;35.33;;
72404;SDS011;60395;52.020;113.548;2024-01-16T01:47:57;104.97;;;38.88;;
72404;SDS011;60395;52.020;113.548;2024-01-16T01:51:02;78.50;;;30.60;;
72404;SDS011;60395;52.020;113.548;2024-01-16T01:54:05;62.50;;;24.27;;
72404;SDS011;60395;52.020;113.548;2024-01-16T01:57:09;25.47;;;14.57;;
72404;SDS011;60395;52.020;113.548;2024-01-16T02:00:13;47.00;;;22.83;;
72404;SDS011;60395;52.020;113.548;2024-01-16T02:03:20;62.37;;;30.93;;
72404;SDS011;60395;52.020;113.548;2024-01-16T02:06:26;64.67;;;26.20;;
72404;SDS011;60395;52.020;113.548;2024-01-16T02:09:29;33.95;;;19.92;;
72404;SDS011;60395;52.020;113.548;2024-01-16T02:12:34;67.20;;;27.97;;
72404;SDS011;60395;52.020;113.548;2024-01-16T02:15:38;75.88;;;45.03;;
72404;SDS011;60395;52.020;113.548;2024-01-16T02:18:43;51.33;;;22.57;;
72404;SDS011;60395;52.020;113.548;2024-01-16T02:21:47;72.15;;;24.95;;
72404;SDS011;60395;52.020;113.548;2024-01-16T02:24:52;73.83;;;31.10;;
72404;SDS011;60395;52.020;113.548;2024-01-16T02:27:55;54.83;;;25.27;;
72404;SDS011;60395;52.020;113.548;2024-01-16T02:30:59;65.65;;;28.13;;
72404;SDS011;60395;52.020;113.548;2024-01-16T02:34:02;61.70;;;26.92;;
72404;SDS011;60395;52.020;113.548;2024-01-16T02:37:09;79.53;;;32.77;;
72404;SDS011;60395;52.020;113.548;2024-01-16T02:40:12;74.85;;;34.00;;
72404;SDS011;60395;52.020;113.548;2024-01-16T02:43:16;45.88;;;18.52;;
72404;SDS011;60395;52.020;113.548;2024-01-16T02:46:19;67.55;;;27.13;;
72404;SDS011;60395;52.020;113.548;2024-01-16T02:49:23;77.22;;;32.45;;
72404;SDS011;60395;52.020;113.548;2024-01-16T02:52:28;61.42;;;27.40;;
72404;SDS011;60395;52.020;113.548;2024-01-16T02:55:32;47.08;;;21.77;;
72404;SDS011;60395;52.020;113.548;2024-01-16T02:58:36;47.38;;;21.73;;
72404;SDS011;60395;52.020;113.548;2024-01-16T03:01:39;32.05;;;16.30;;
72404;SDS011;60395;52.020;113.548;2024-01-16T03:04:43;29.77;;;13.95;;
72404;SDS011;60395;52.020;113.548;2024-01-16T03:07:46;42.13;;;16.75;;
72404;SDS011;60395;52.020;113.548;2024-01-16T03:10:50;42.30;;;14.52;;
72404;SDS011;60395;52.020;113.548;2024-01-16T03:13:53;24.27;;;10.55;;
72404;SDS011;60395;52.020;113.548;2024-01-16T03:16:56;14.57;;;9.38;;
72404;SDS011;60395;52.020;113.548;2024-01-16T03:19:59;18.38;;;9.38;;
72404;SDS011;60395;52.020;113.548;2024-01-16T03:23:03;25.45;;;11.55;;
72404;SDS011;60395;52.020;113.548;2024-01-16T03:26:11;26.65;;;10.80;;
72404;SDS011;60395;52.020;113.548;2024-01-16T03:29:16;33.30;;;10.27;;
72404;SDS011;60395;52.020;113.548;2024-01-16T03:32:20;27.30;;;15.65;;
72404;SDS011;60395;52.020;113.548;2024-01-16T03:35:23;29.20;;;9.60;;
72404;SDS011;60395;52.020;113.548;2024-01-16T03:38:27;33.10;;;13.87;;
72404;SDS011;60395;52.020;113.548;2024-01-16T03:41:30;36.30;;;13.63;;
72404;SDS011;60395;52.020;113.548;2024-01-16T03:44:37;43.67;;;16.58;;
72404;SDS011;60395;52.020;113.548;2024-01-16T03:47:44;45.88;;;23.38;;
72404;SDS011;60395;52.020;113.548;2024-01-16T03:50:48;64.28;;;17.25;;
72404;SDS011;60395;52.020;113.548;2024-01-16T03:53:51;45.72;;;17.42;;
72404;SDS011;60395;52.020;113.548;2024-01-16T03:56:55;36.08;;;15.02;;
72404;SDS011;60395;52.020;113.548;2024-01-16T03:59:58;35.75;;;16.52;;
72404;SDS011;60395;52.020;113.548;2024-01-16T04:03:04;59.25;;;20.92;;
72404;SDS011;60395;52.020;113.548;2024-01-16T04:06:16;46.72;;;15.85;;
72404;SDS011;60395;52.020;113.548;2024-01-16T04:09:20;49.17;;;18.65;;
72404;SDS011;60395;52.020;113.548;2024-01-16T04:12:24;43.42;;;16.30;;
72404;SDS011;60395;52.020;113.548;2024-01-16T04:15:27;37.53;;;17.42;;
72404;SDS011;60395;52.020;113.548;2024-01-16T04:18:35;43.55;;;15.75;;
72404;SDS011;60395;52.020;113.548;2024-01-16T04:21:40;43.17;;;15.32;;
72404;SDS011;60395;52.020;113.548;2024-01-16T04:24:43;25.73;;;10.30;;
72404;SDS011;60395;52.020;113.548;2024-01-16T04:27:47;49.03;;;19.60;;
72404;SDS011;60395;52.020;113.548;2024-01-16T04:30:50;52.10;;;20.23;;
72404;SDS011;60395;52.020;113.548;2024-01-16T04:33:54;48.28;;;19.88;;
72404;SDS011;60395;52.020;113.548;2024-01-16T04:36:58;58.40;;;21.52;;
72404;SDS011;60395;52.020;113.548;2024-01-16T04:40:01;51.87;;;20.63;;
72404;SDS011;60395;52.020;113.548;2024-01-16T04:43:05;43.08;;;17.45;;
72404;SDS011;60395;52.020;113.548;2024-01-16T04:46:09;45.33;;;17.80;;
72404;SDS011;60395;52.020;113.548;2024-01-16T04:49:13;51.30;;;18.75;;
72404;SDS011;60395;52.020;113.548;2024-01-16T04:52:17;41.78;;;18.10;;
72404;SDS011;60395;52.020;113.548;2024-01-16T04:55:20;68.82;;;21.08;;
72404;SDS011;60395;52.020;113.548;2024-01-16T04:58:24;64.82;;;23.88;;
72404;SDS011;60395;52.020;113.548;2024-01-16T05:01:27;56.83;;;22.47;;
72404;SDS011;60395;52.020;113.548;2024-01-16T05:04:31;73.85;;;23.58;;
72404;SDS011;60395;52.020;113.548;2024-01-16T05:07:34;62.27;;;20.03;;
72404;SDS011;60395;52.020;113.548;2024-01-16T05:10:38;68.80;;;24.48;;
72404;SDS011;60395;52.020;113.548;2024-01-16T05:13:44;54.63;;;20.70;;
72404;SDS011;60395;52.020;113.548;2024-01-16T05:16:47;60.47;;;22.47;;
72404;SDS011;60395;52.020;113.548;2024-01-16T05:19:50;67.72;;;20.45;;
72404;SDS011;60395;52.020;113.548;2024-01-16T05:22:54;71.85;;;20.30;;
72404;SDS011;60395;52.020;113.548;2024-01-16T05:25:57;64.32;;;24.40;;
72404;SDS011;60395;52.020;113.548;2024-01-16T05:29:01;56.78;;;22.92;;
72404;SDS011;60395;52.020;113.548;2024-01-16T05:32:04;75.97;;;27.10;;
72404;SDS011;60395;52.020;113.548;2024-01-16T05:35:08;81.50;;;25.15;;
72404;SDS011;60395;52.020;113.548;2024-01-16T05:38:14;86.97;;;27.17;;
72404;SDS011;60395;52.020;113.548;2024-01-16T05:41:18;73.60;;;24.70;;
72404;SDS011;60395;52.020;113.548;2024-01-16T05:44:21;78.28;;;27.15;;
72404;SDS011;60395;52.020;113.548;2024-01-16T05:47:25;73.30;;;25.92;;
72404;SDS011;60395;52.020;113.548;2024-01-16T05:50:30;66.68;;;24.83;;
72404;SDS011;60395;52.020;113.548;2024-01-16T05:53:34;70.13;;;23.88;;
72404;SDS011;60395;52.020;113.548;2024-01-16T05:56:37;68.77;;;23.23;;
72404;SDS011;60395;52.020;113.548;2024-01-16T05:59:41;59.60;;;17.73;;
72404;SDS011;60395;52.020;113.548;2024-01-16T06:02:44;68.53;;;23.40;;
72404;SDS011;60395;52.020;113.548;2024-01-16T06:05:48;61.17;;;23.53;;
72404;SDS011;60395;52.020;113.548;2024-01-16T06:08:52;68.53;;;25.13;;
72404;SDS011;60395;52.020;113.548;2024-01-16T06:11:56;79.63;;;27.67;;
72404;SDS011;60395;52.020;113.548;2024-01-16T06:15:00;62.53;;;23.73;;
72404;SDS011;60395;52.020;113.548;2024-01-16T06:18:04;44.47;;;16.85;;
72404;SDS011;60395;52.020;113.548;2024-01-16T06:21:08;71.38;;;24.15;;
72404;SDS011;60395;52.020;113.548;2024-01-16T06:24:14;73.22;;;28.08;;
72404;SDS011;60395;52.020;113.548;2024-01-16T06:27:18;73.07;;;26.97;;
72404;SDS011;60395;52.020;113.548;2024-01-16T06:30:24;81.57;;;28.60;;
72404;SDS011;60395;52.020;113.548;2024-01-16T06:33:28;69.53;;;22.15;;
72404;SDS011;60395;52.020;113.548;2024-01-16T06:36:31;83.78;;;27.50;;
72404;SDS011;60395;52.020;113.548;2024-01-16T06:39:35;83.57;;;28.67;;
72404;SDS011;60395;52.020;113.548;2024-01-16T06:42:39;84.10;;;30.23;;
72404;SDS011;60395;52.020;113.548;2024-01-16T06:45:42;84.97;;;30.98;;
72404;SDS011;60395;52.020;113.548;2024-01-16T06:48:46;81.45;;;33.20;;
72404;SDS011;60395;52.020;113.548;2024-01-16T06:51:51;94.00;;;34.78;;
72404;SDS011;60395;52.020;113.548;2024-01-16T06:54:55;99.20;;;38.50;;
72404;SDS011;60395;52.020;113.548;2024-01-16T06:57:58;71.63;;;29.07;;
72404;SDS011;60395;52.020;113.548;2024-01-16T07:01:03;103.83;;;37.10;;
72404;SDS011;60395;52.020;113.548;2024-01-16T07:04:06;93.05;;;33.00;;
72404;SDS011;60395;52.020;113.548;2024-01-16T07:07:10;55.87;;;21.30;;
72404;SDS011;60395;52.020;113.548;2024-01-16T07:10:14;95.30;;;32.70;;
72404;SDS011;60395;52.020;113.548;2024-01-16T07:13:20;79.50;;;28.42;;
72404;SDS011;60395;52.020;113.548;2024-01-16T07:16:24;46.80;;;16.00;;
72404;SDS011;60395;52.020;113.548;2024-01-16T07:19:27;31.03;;;13.77;;
72404;SDS011;60395;52.020;113.548;2024-01-16T07:22:31;77.70;;;27.13;;
72404;SDS011;60395;52.020;113.548;2024-01-16T07:25:34;50.17;;;14.90;;
72404;SDS011;60395;52.020;113.548;2024-01-16T07:28:38;46.13;;;17.63;;
72404;SDS011;60395;52.020;113.548;2024-01-16T07:31:41;66.87;;;22.20;;
72404;SDS011;60395;52.020;113.548;2024-01-16T07:34:45;47.38;;;16.13;;
72404;SDS011;60395;52.020;113.548;2024-01-16T07:37:48;49.70;;;15.40;;
72404;SDS011;60395;52.020;113.548;2024-01-16T07:40:52;42.75;;;14.43;;
72404;SDS011;60395;52.020;113.548;2024-01-16T07:43:55;18.40;;;8.23;;
72404;SDS011;60395;52.020;113.548;2024-01-16T07:46:59;41.08;;;14.32;;
72404;SDS011;60395;52.020;113.548;2024-01-16T07:50:02;47.83;;;14.03;;
72404;SDS011;60395;52.020;113.548;2024-01-16T07:53:09;42.22;;;14.80;;
72404;SDS011;60395;52.020;113.548;2024-01-16T07:56:12;41.03;;;14.35;;
72404;SDS011;60395;52.020;113.548;2024-01-16T07:59:16;47.17;;;17.10;;
72404;SDS011;60395;52.020;113.548;2024-01-16T08:02:20;39.03;;;15.75;;
72404;SDS011;60395;52.020;113.548;2024-01-16T08:05:25;46.30;;;17.58;;
72404;SDS011;60395;52.020;113.548;2024-01-16T08:08:30;53.60;;;17.10;;
72404;SDS011;60395;52.020;113.548;2024-01-16T08:11:36;41.28;;;13.98;;
72404;SDS011;60395;52.020;113.548;2024-01-16T08:14:40;43.53;;;14.40;;
72404;SDS011;60395;52.020;113.548;2024-01-16T08:17:43;48.78;;;15.10;;
72404;SDS011;60395;52.020;113.548;2024-01-16T08:20:47;51.75;;;16.80;;
72404;SDS011;60395;52.020;113.548;2024-01-16T08:23:50;44.78;;;15.98;;
72404;SDS011;60395;52.020;113.548;2024-01-16T08:26:54;50.67;;;17.73;;
72404;SDS011;60395;52.020;113.548;2024-01-16T08:30:00;46.97;;;15.60;;
72404;SDS011;60395;52.020;113.548;2024-01-16T08:33:03;49.27;;;16.07;;
72404;SDS011;60395;52.020;113.548;2024-01-16T08:36:07;43.42;;;15.02;;
72404;SDS011;60395;52.020;113.548;2024-01-16T08:39:11;50.10;;;16.35;;
72404;SDS011;60395;52.020;113.548;2024-01-16T08:42:14;41.43;;;16.57;;
72404;SDS011;60395;52.020;113.548;2024-01-16T08:45:18;38.63;;;16.02;;
72404;SDS011;60395;52.020;113.548;2024-01-16T08:48:21;28.27;;;10.32;;
72404;SDS011;60395;52.020;113.548;2024-01-16T08:51:25;42.58;;;14.30;;
72404;SDS011;60395;52.020;113.548;2024-01-16T08:54:29;32.38;;;12.27;;
72404;SDS011;60395;52.020;113.548;2024-01-16T08:57:32;36.00;;;13.57;;
72404;SDS011;60395;52.020;113.548;2024-01-16T09:00:39;33.95;;;15.05;;
72404;SDS011;60395;52.020;113.548;2024-01-16T09:03:43;32.60;;;13.25;;
72404;SDS011;60395;52.020;113.548;2024-01-16T09:06:46;39.20;;;14.30;;
72404;SDS011;60395;52.020;113.548;2024-01-16T09:09:50;37.10;;;13.52;;
72404;SDS011;60395;52.020;113.548;2024-01-16T09:12:54;49.23;;;16.80;;
72404;SDS011;60395;52.020;113.548;2024-01-16T09:15:57;27.20;;;10.53;;
72404;SDS011;60395;52.020;113.548;2024-01-16T09:19:01;49.37;;;16.40;;
72404;SDS011;60395;52.020;113.548;2024-01-16T09:22:04;27.65;;;11.18;;
72404;SDS011;60395;52.020;113.548;2024-01-16T09:25:08;39.38;;;15.25;;
72404;SDS011;60395;52.020;113.548;2024-01-16T09:28:12;42.60;;;16.23;;
72404;SDS011;60395;52.020;113.548;2024-01-16T09:31:15;41.22;;;15.93;;
72404;SDS011;60395;52.020;113.548;2024-01-16T09:34:19;29.42;;;10.95;;
72404;SDS011;60395;52.020;113.548;2024-01-16T09:37:22;41.05;;;13.50;;
72404;SDS011;60395;52.020;113.548;2024-01-16T09:40:26;29.65;;;11.55;;
72404;SDS011;60395;52.020;113.548;2024-01-16T09:43:30;28.20;;;8.75;;
72404;SDS011;60395;52.020;113.548;2024-01-16T09:46:37;25.98;;;9.98;;
72404;SDS011;60395;52.020;113.548;2024-01-16T09:49:42;27.83;;;10.43;;
72404;SDS011;60395;52.020;113.548;2024-01-16T09:52:49;35.70;;;13.25;;
72404;SDS011;60395;52.020;113.548;2024-01-16T09:55:54;32.92;;;12.15;;
72404;SDS011;60395;52.020;113.548;2024-01-16T09:59:02;23.40;;;9.93;;
72404;SDS011;60395;52.020;113.548;2024-01-16T10:02:09;28.85;;;8.70;;
72404;SDS011;60395;52.020;113.548;2024-01-16T10:08:17;21.20;;;9.07;;
72404;SDS011;60395;52.020;113.548;2024-01-16T10:11:24;22.98;;;8.30;;
72404;SDS011;60395;52.020;113.548;2024-01-16T10:14:27;24.07;;;9.47;;
72404;SDS011;60395;52.020;113.548;2024-01-16T10:20:39;21.73;;;8.38;;
72404;SDS011;60395;52.020;113.548;2024-01-16T10:23:43;20.63;;;7.65;;
72404;SDS011;60395;52.020;113.548;2024-01-16T10:26:49;32.00;;;10.23;;
72404;SDS011;60395;52.020;113.548;2024-01-16T10:30:03;44.97;;;14.10;;
72404;SDS011;60395;52.020;113.548;2024-01-16T10:33:15;38.05;;;11.82;;
72404;SDS011;60395;52.020;113.548;2024-01-16T10:36:20;23.10;;;8.45;;
72404;SDS011;60395;52.020;113.548;2024-01-16T10:39:24;23.52;;;9.90;;
72404;SDS011;60395;52.020;113.548;2024-01-16T10:42:42;32.10;;;10.60;;
72404;SDS011;60395;52.020;113.548;2024-01-16T10:45:47;27.38;;;9.98;;
72404;SDS011;60395;52.020;113.548;2024-01-16T10:48:59;19.87;;;7.87;;
72404;SDS011;60395;52.020;113.548;2024-01-16T10:52:06;22.52;;;8.65;;
72404;SDS011;60395;52.020;113.548;2024-01-16T10:55:23;29.27;;;10.15;;
72404;SDS011;60395;52.020;113.548;2024-01-16T10:58:26;29.95;;;11.20;;
72404;SDS011;60395;52.020;113.548;2024-01-16T11:01:34;19.85;;;9.20;;
72404;SDS011;60395;52.020;113.548;2024-01-16T11:04:39;27.77;;;8.13;;
72404;SDS011;60395;52.020;113.548;2024-01-16T11:07:44;23.52;;;7.80;;
72404;SDS011;60395;52.020;113.548;2024-01-16T11:10:49;84.70;;;23.45;;
72404;SDS011;60395;52.020;113.548;2024-01-16T11:13:53;100.40;;;18.48;;
72404;SDS011;60395;52.020;113.548;2024-01-16T11:16:58;108.05;;;22.38;;
72404;SDS011;60395;52.020;113.548;2024-01-16T11:20:05;13.32;;;6.05;;
72404;SDS011;60395;52.020;113.548;2024-01-16T11:23:36;20.40;;;8.25;;
72404;SDS011;60395;52.020;113.548;2024-01-16T11:29:44;6.00;;;2.15;;
72404;SDS011;60395;52.020;113.548;2024-01-16T11:32:53;4.93;;;1.75;;
72404;SDS011;60395;52.020;113.548;2024-01-16T11:35:57;6.97;;;2.03;;
72404;SDS011;60395;52.020;113.548;2024-01-16T11:42:04;7.90;;;4.10;;
72404;SDS011;60395;52.020;113.548;2024-01-16T11:48:33;6.85;;;3.22;;
72404;SDS011;60395;52.020;113.548;2024-01-16T11:51:38;6.68;;;3.50;;
72404;SDS011;60395;52.020;113.548;2024-01-16T11:54:44;7.75;;;3.45;;
72404;SDS011;60395;52.020;113.548;2024-01-16T11:58:02;6.20;;;2.65;;
72404;SDS011;60395;52.020;113.548;2024-01-16T12:01:28;13.75;;;2.95;;
72404;SDS011;60395;52.020;113.548;2024-01-16T12:04:33;15.73;;;4.93;;
72404;SDS011;60395;52.020;113.548;2024-01-16T12:07:47;9.48;;;4.07;;
72404;SDS011;60395;52.020;113.548;2024-01-16T12:14:31;5.97;;;3.13;;
72404;SDS011;60395;52.020;113.548;2024-01-16T12:17:36;4.05;;;2.13;;
72404;SDS011;60395;52.020;113.548;2024-01-16T12:20:41;4.78;;;1.60;;
72404;SDS011;60395;52.020;113.548;2024-01-16T12:23:45;5.32;;;1.95;;
72404;SDS011;60395;52.020;113.548;2024-01-16T12:27:02;9.77;;;2.70;;
72404;SDS011;60395;52.020;113.548;2024-01-16T12:30:07;3.63;;;1.65;;
72404;SDS011;60395;52.020;113.548;2024-01-16T12:33:12;4.55;;;1.23;;
72404;SDS011;60395;52.020;113.548;2024-01-16T12:36:17;8.52;;;2.83;;
72404;SDS011;60395;52.020;113.548;2024-01-16T12:39:22;2.33;;;1.00;;
72404;SDS011;60395;52.020;113.548;2024-01-16T12:42:26;5.37;;;1.63;;
72404;SDS011;60395;52.020;113.548;2024-01-16T12:45:31;4.85;;;2.17;;
72404;SDS011;60395;52.020;113.548;2024-01-16T12:48:35;7.50;;;2.63;;
72404;SDS011;60395;52.020;113.548;2024-01-16T12:55:24;7.30;;;3.20;;
72404;SDS011;60395;52.020;113.548;2024-01-16T12:58:34;18.70;;;4.43;;
72404;SDS011;60395;52.020;113.548;2024-01-16T13:01:40;11.90;;;5.07;;
72404;SDS011;60395;52.020;113.548;2024-01-16T13:04:46;5.85;;;1.73;;
72404;SDS011;60395;52.020;113.548;2024-01-16T13:08:00;2.70;;;1.48;;
72404;SDS011;60395;52.020;113.548;2024-01-16T13:11:06;5.95;;;2.08;;
72404;SDS011;60395;52.020;113.548;2024-01-16T13:14:12;6.38;;;2.08;;
72404;SDS011;60395;52.020;113.548;2024-01-16T13:17:15;7.28;;;2.38;;
72404;SDS011;60395;52.020;113.548;2024-01-16T13:20:19;10.98;;;2.53;;
72404;SDS011;60395;52.020;113.548;2024-01-16T13:23:23;6.40;;;1.50;;
72404;SDS011;60395;52.020;113.548;2024-01-16T13:26:30;12.88;;;4.13;;
72404;SDS011;60395;52.020;113.548;2024-01-16T13:29:35;16.27;;;4.50;;
72404;SDS011;60395;52.020;113.548;2024-01-16T13:32:42;13.35;;;4.53;;
72404;SDS011;60395;52.020;113.548;2024-01-16T13:35:46;14.20;;;5.63;;
72404;SDS011;60395;52.020;113.548;2024-01-16T13:41:53;9.27;;;4.13;;
72404;SDS011;60395;52.020;113.548;2024-01-16T13:44:57;7.70;;;2.95;;
72404;SDS011;60395;52.020;113.548;2024-01-16T13:48:01;21.27;;;3.85;;
72404;SDS011;60395;52.020;113.548;2024-01-16T13:54:09;5.28;;;2.45;;
72404;SDS011;60395;52.020;113.548;2024-01-16T13:57:13;5.07;;;2.35;;
72404;SDS011;60395;52.020;113.548;2024-01-16T14:00:17;6.90;;;2.72;;
72404;SDS011;60395;52.020;113.548;2024-01-16T14:03:21;8.73;;;3.45;;
72404;SDS011;60395;52.020;113.548;2024-01-16T14:06:30;13.48;;;4.15;;
72404;SDS011;60395;52.020;113.548;2024-01-16T14:09:54;8.98;;;3.58;;
72404;SDS011;60395;52.020;113.548;2024-01-16T14:12:58;5.20;;;2.42;;
72404;SDS011;60395;52.020;113.548;2024-01-16T14:16:05;5.43;;;2.30;;
72404;SDS011;60395;52.020;113.548;2024-01-16T14:19:09;5.28;;;2.58;;
72404;SDS011;60395;52.020;113.548;2024-01-16T14:22:13;3.67;;;1.52;;
72404;SDS011;60395;52.020;113.548;2024-01-16T14:25:19;4.70;;;1.95;;
72404;SDS011;60395;52.020;113.548;2024-01-16T14:28:23;6.93;;;1.83;;
72404;SDS011;60395;52.020;113.548;2024-01-16T14:31:31;1.00;;;0.88;;
72404;SDS011;60395;52.020;113.548;2024-01-16T14:34:34;1.65;;;0.73;;
72404;SDS011;60395;52.020;113.548;2024-01-16T14:40:43;1.73;;;1.58;;
72404;SDS011;60395;52.020;113.548;2024-01-16T14:43:47;4.38;;;1.75;;
72404;SDS011;60395;52.020;113.548;2024-01-16T14:46:51;4.55;;;1.95;;
72404;SDS011;60395;52.020;113.548;2024-01-16T14:49:56;8.10;;;2.78;;
72404;SDS011;60395;52.020;113.548;2024-01-16T14:53:00;7.28;;;3.38;;
72404;SDS011;60395;52.020;113.548;2024-01-16T14:56:05;8.70;;;2.92;;
72404;SDS011;60395;52.020;113.548;2024-01-16T14:59:09;11.85;;;3.63;;
72404;SDS011;60395;52.020;113.548;2024-01-16T15:02:16;7.93;;;1.80;;
72404;SDS011;60395;52.020;113.548;2024-01-16T15:05:23;5.35;;;0.95;;
72404;SDS011;60395;52.020;113.548;2024-01-16T15:08:27;1.23;;;0.63;;
72404;SDS011;60395;52.020;113.548;2024-01-16T15:11:33;2.80;;;1.17;;
72404;SDS011;60395;52.020;113.548;2024-01-16T15:14:37;4.22;;;1.70;;
72404;SDS011;60395;52.020;113.548;2024-01-16T15:17:42;2.47;;;1.27;;
72404;SDS011;60395;52.020;113.548;2024-01-16T15:20:47;6.43;;;1.30;;
72404;SDS011;60395;52.020;113.548;2024-01-16T15:23:50;5.75;;;1.40;;
72404;SDS011;60395;52.020;113.548;2024-01-16T15:26:58;3.38;;;1.27;;
72404;SDS011;60395;52.020;113.548;2024-01-16T15:30:05;2.53;;;1.35;;
72404;SDS011;60395;52.020;113.548;2024-01-16T15:33:11;5.07;;;1.80;;
72404;SDS011;60395;52.020;113.548;2024-01-16T15:36:16;0.82;;;0.55;;
72404;SDS011;60395;52.020;113.548;2024-01-16T15:39:20;1.13;;;0.68;;
72404;SDS011;60395;52.020;113.548;2024-01-16T15:45:28;0.73;;;0.30;;
72404;SDS011;60395;52.020;113.548;2024-01-16T15:48:32;0.47;;;0.30;;
72404;SDS011;60395;52.020;113.548;2024-01-16T15:51:36;1.73;;;0.50;;
72404;SDS011;60395;52.020;113.548;2024-01-16T15:54:40;1.30;;;0.88;;
72404;SDS011;60395;52.020;113.548;2024-01-16T15:57:44;1.17;;;0.52;;
72404;SDS011;60395;52.020;113.548;2024-01-16T16:00:47;3.85;;;0.85;;
72404;SDS011;60395;52.020;113.548;2024-01-16T16:03:51;1.65;;;1.02;;
72404;SDS011;60395;52.020;113.548;2024-01-16T16:06:54;3.55;;;1.85;;
72404;SDS011;60395;52.020;113.548;2024-01-16T16:09:58;3.38;;;1.25;;
72404;SDS011;60395;52.020;113.548;2024-01-16T16:13:02;10.48;;;1.70;;
72404;SDS011;60395;52.020;113.548;2024-01-16T16:19:10;5.75;;;1.73;;
72404;SDS011;60395;52.020;113.548;2024-01-16T16:22:14;6.50;;;2.42;;
72404;SDS011;60395;52.020;113.548;2024-01-16T16:25:18;11.18;;;2.90;;
72404;SDS011;60395;52.020;113.548;2024-01-16T16:28:21;3.10;;;1.42;;
72404;SDS011;60395;52.020;113.548;2024-01-16T16:31:26;4.53;;;1.25;;
72404;SDS011;60395;52.020;113.548;2024-01-16T16:34:30;3.45;;;1.73;;
72404;SDS011;60395;52.020;113.548;2024-01-16T16:37:35;3.13;;;2.22;;
72404;SDS011;60395;52.020;113.548;2024-01-16T16:40:39;2.80;;;0.80;;
72404;SDS011;60395;52.020;113.548;2024-01-16T16:43:43;2.63;;;1.10;;
72404;SDS011;60395;52.020;113.548;2024-01-16T16:46:46;3.00;;;1.10;;
72404;SDS011;60395;52.020;113.548;2024-01-16T16:49:49;2.40;;;1.67;;
72404;SDS011;60395;52.020;113.548;2024-01-16T16:52:53;5.22;;;3.08;;
72404;SDS011;60395;52.020;113.548;2024-01-16T16:55:57;1.63;;;1.40;;
72404;SDS011;60395;52.020;113.548;2024-01-16T16:59:01;0.88;;;0.65;;
72404;SDS011;60395;52.020;113.548;2024-01-16T17:02:04;1.00;;;0.60;;
72404;SDS011;60395;52.020;113.548;2024-01-16T17:05:08;1.95;;;0.60;;
72404;SDS011;60395;52.020;113.548;2024-01-16T17:08:12;1.90;;;0.93;;
72404;SDS011;60395;52.020;113.548;2024-01-16T17:11:15;4.88;;;0.55;;
72404;SDS011;60395;52.020;113.548;2024-01-16T17:14:19;1.17;;;0.90;;
72404;SDS011;60395;52.020;113.548;2024-01-16T17:17:22;0.45;;;0.35;;
72404;SDS011;60395;52.020;113.548;2024-01-16T17:20:26;0.90;;;0.60;;
72404;SDS011;60395;52.020;113.548;2024-01-16T17:23:32;0.77;;;0.57;;
72404;SDS011;60395;52.020;113.548;2024-01-16T17:26:36;0.13;;;0.13;;
72404;SDS011;60395;52.020;113.548;2024-01-16T17:29:42;0.80;;;0.45;;
72404;SDS011;60395;52.020;113.548;2024-01-16T17:32:45;1.02;;;0.55;;
72404;SDS011;60395;52.020;113.548;2024-01-16T17:35:49;3.47;;;1.17;;
72404;SDS011;60395;52.020;113.548;2024-01-16T17:38:53;2.05;;;0.50;;
72404;SDS011;60395;52.020;113.548;2024-01-16T17:42:02;0.45;;;0.30;;
72404;SDS011;60395;52.020;113.548;2024-01-16T17:45:07;1.83;;;0.60;;
72404;SDS011;60395;52.020;113.548;2024-01-16T17:48:11;1.95;;;0.88;;
72404;SDS011;60395;52.020;113.548;2024-01-16T17:51:18;2.13;;;0.60;;
72404;SDS011;60395;52.020;113.548;2024-01-16T17:57:26;0.47;;;0.43;;
72404;SDS011;60395;52.020;113.548;2024-01-16T18:00:31;1.92;;;0.45;;
72404;SDS011;60395;52.020;113.548;2024-01-16T18:03:35;0.85;;;0.50;;
72404;SDS011;60395;52.020;113.548;2024-01-16T18:06:46;0.77;;;0.50;;
72404;SDS011;60395;52.020;113.548;2024-01-16T18:09:50;1.02;;;0.73;;
72404;SDS011;60395;52.020;113.548;2024-01-16T18:12:53;1.83;;;0.75;;
72404;SDS011;60395;52.020;113.548;2024-01-16T18:15:58;0.55;;;0.43;;
72404;SDS011;60395;52.020;113.548;2024-01-16T18:19:07;2.20;;;0.65;;
72404;SDS011;60395;52.020;113.548;2024-01-16T18:25:14;3.13;;;2.75;;
72404;SDS011;60395;52.020;113.548;2024-01-16T18:28:18;0.45;;;0.30;;
72404;SDS011;60395;52.020;113.548;2024-01-16T18:31:23;0.73;;;0.28;;
72404;SDS011;60395;52.020;113.548;2024-01-16T18:34:27;0.95;;;0.50;;